Time;durP1;ratioP1;P1;durP2;ratioP2;P2;SDS_P1;SDS_P2;PMS_P1;PMS_P2;Temp;Humidity;BMP_temperature;BMP_pressure;BME280_temperature;BME280_humidity;BME280_pressure;Samples;Min_cycle;Max_cycle;Signal;HPM_P1;HPM_P2
2022/10/15 00:00:11;;;;;;;9.57;3.47;;;;;;;;;;1043512;28;20535;-79
2022/10/15 00:00:41;;;;;;;9.68;4.25;;;;;;;;;;1043680;28;20023;-79
2022/10/15 00:01:14;;;;;;;22.90;4.22;;;;;;;;;;1043612;28;20110;-79
2022/10/15 00:01:45;;;;;;;17.15;4.22;;;;;;;;;;1046024;28;20554;-79
2022/10/15 00:02:15;;;;;;;14.35;4.13;;;;;;;;;;1044296;28;20028;-79
2022/10/15 00:02:46;;;;;;;19.10;5.30;;;;;;;;;;1044561;28;20037;-79
2022/10/15 00:03:16;;;;;;;13.15;3.20;;;;;;;;;;1045667;28;20407;-79
2022/10/15 00:03:47;;;;;;;12.73;3.95;;;;;;;;;;1042753;28;20094;-79
2022/10/15 00:04:18;;;;;;;10.50;4.03;;;;;;;;;;1046863;28;20039;-79
2022/10/15 00:04:48;;;;;;;5.72;3.47;;;;;;;;;;1046379;28;20024;-79
2022/10/15 00:05:19;;;;;;;11.15;3.72;;;;;;;;;;1043008;28;20025;-79
2022/10/15 00:05:49;;;;;;;8.82;3.75;;;;;;;;;;1042337;28;20021;-79
2022/10/15 00:06:20;;;;;;;16.42;4.10;;;;;;;;;;1036343;28;20168;-79
2022/10/15 00:06:51;;;;;;;38.22;4.97;;;;;;;;;;1038644;28;20087;-79
2022/10/15 00:07:21;;;;;;;12.18;4.20;;;;;;;;;;1038060;28;20029;-79
2022/10/15 00:07:52;;;;;;;7.13;3.05;;;;;;;;;;1041795;28;20041;-79
2022/10/15 00:08:23;;;;;;;8.65;3.40;;;;;;;;;;1046269;28;20024;-78
2022/10/15 00:08:53;;;;;;;10.85;3.67;;;;;;;;;;1044523;28;20027;-79
2022/10/15 00:09:24;;;;;;;14.77;3.80;;;;;;;;;;1045615;28;20029;-79
2022/10/15 00:09:54;;;;;;;10.77;3.47;;;;;;;;;;1046004;28;20063;-79
2022/10/15 00:10:25;;;;;;;17.27;4.20;;;;;;;;;;1045861;28;20112;-79
2022/10/15 00:11:00;;;;;;;10.73;3.25;;;;;;;;;;1043314;28;20107;-79
2022/10/15 00:11:31;;;;;;;18.60;5.05;;;;;;;;;;1043524;28;20428;-79
2022/10/15 00:12:02;;;;;;;8.68;2.75;;;;;;;;;;1044975;28;20123;-79
2022/10/15 00:12:32;;;;;;;10.82;3.75;;;;;;;;;;1044661;28;20050;-79
2022/10/15 00:13:03;;;;;;;9.85;4.05;;;;;;;;;;1045544;28;20051;-79
2022/10/15 00:13:34;;;;;;;9.95;5.07;;;;;;;;;;1045780;28;20069;-79
2022/10/15 00:14:04;;;;;;;12.57;3.25;;;;;;;;;;1044470;28;20013;-79
2022/10/15 00:14:35;;;;;;;17.35;4.05;;;;;;;;;;1045690;28;20485;-79
2022/10/15 00:15:06;;;;;;;17.65;4.18;;;;;;;;;;1045907;28;20033;-79
2022/10/15 00:15:37;;;;;;;10.18;3.30;;;;;;;;;;1045834;28;20028;-79
2022/10/15 00:16:09;;;;;;;11.63;3.45;;;;;;;;;;1042157;28;20020;-79
2022/10/15 00:16:40;;;;;;;10.25;3.85;;;;;;;;;;1044800;28;20062;-79
2022/10/15 00:17:11;;;;;;;21.95;3.42;;;;;;;;;;1045792;28;20025;-79
2022/10/15 00:17:41;;;;;;;6.10;3.88;;;;;;;;;;1044299;28;20021;-79
2022/10/15 00:18:12;;;;;;;9.93;3.75;;;;;;;;;;1045180;28;20488;-79
2022/10/15 00:18:43;;;;;;;12.35;3.60;;;;;;;;;;1046286;28;20024;-79
2022/10/15 00:19:13;;;;;;;14.95;3.15;;;;;;;;;;1043221;28;20032;-79
2022/10/15 00:19:44;;;;;;;16.08;4.78;;;;;;;;;;1043479;28;20021;-79
2022/10/15 00:20:14;;;;;;;8.20;4.57;;;;;;;;;;1043726;28;20063;-79
2022/10/15 00:20:45;;;;;;;15.55;3.78;;;;;;;;;;1045154;28;20475;-78
2022/10/15 00:21:17;;;;;;;8.88;4.28;;;;;;;;;;1045080;28;20073;-79
2022/10/15 00:21:47;;;;;;;20.17;4.85;;;;;;;;;;1042897;28;20419;-79
2022/10/15 00:22:18;;;;;;;33.50;5.20;;;;;;;;;;1045293;28;20023;-78
2022/10/15 00:22:48;;;;;;;13.45;3.60;;;;;;;;;;1046144;28;20029;-79
2022/10/15 00:23:19;;;;;;;8.55;3.65;;;;;;;;;;1044696;28;20017;-79
2022/10/15 00:23:50;;;;;;;10.85;3.80;;;;;;;;;;1045300;28;20087;-79
2022/10/15 00:24:20;;;;;;;18.73;4.55;;;;;;;;;;1042579;28;20029;-78
2022/10/15 00:24:51;;;;;;;13.30;4.05;;;;;;;;;;1044187;28;20053;-79
2022/10/15 00:25:22;;;;;;;16.77;3.75;;;;;;;;;;1039017;28;20029;-79
2022/10/15 00:26:02;;;;;;;24.23;5.57;;;;;;;;;;1038835;28;20084;-79
2022/10/15 00:26:33;;;;;;;18.30;4.75;;;;;;;;;;1038672;28;20026;-79
2022/10/15 00:27:03;;;;;;;20.08;3.65;;;;;;;;;;1039699;28;20021;-79
2022/10/15 00:27:34;;;;;;;33.28;5.45;;;;;;;;;;1039425;28;20033;-79
2022/10/15 00:28:05;;;;;;;22.90;4.45;;;;;;;;;;1039008;28;20505;-79
2022/10/15 00:28:36;;;;;;;12.25;4.40;;;;;;;;;;1039107;28;20120;-78
2022/10/15 00:29:06;;;;;;;27.52;4.93;;;;;;;;;;1042490;28;20031;-79
2022/10/15 00:29:37;;;;;;;25.65;6.32;;;;;;;;;;1044282;28;20047;-79
2022/10/15 00:30:08;;;;;;;15.90;5.25;;;;;;;;;;1045505;28;20480;-79
2022/10/15 00:30:38;;;;;;;23.50;5.97;;;;;;;;;;1045032;28;20020;-79
2022/10/15 00:31:11;;;;;;;15.95;5.30;;;;;;;;;;1045518;28;20032;-78
2022/10/15 00:31:41;;;;;;;18.00;4.05;;;;;;;;;;1044971;28;20021;-79
2022/10/15 00:32:13;;;;;;;19.83;6.78;;;;;;;;;;1044385;28;20129;-79
2022/10/15 00:32:43;;;;;;;18.85;4.72;;;;;;;;;;1045942;28;20025;-79
2022/10/15 00:33:14;;;;;;;18.77;5.18;;;;;;;;;;1042062;28;20025;-79
2022/10/15 00:33:45;;;;;;;20.17;5.43;;;;;;;;;;1041563;28;20399;-79
2022/10/15 00:34:15;;;;;;;22.15;6.38;;;;;;;;;;1040942;28;20032;-79
2022/10/15 00:34:46;;;;;;;29.33;5.45;;;;;;;;;;1046095;28;20107;-79
2022/10/15 00:35:17;;;;;;;31.65;7.32;;;;;;;;;;1045787;28;20420;-79
2022/10/15 00:35:56;;;;;;;12.02;6.40;;;;;;;;;;1046198;28;20457;-79
2022/10/15 00:36:28;;;;;;;19.40;5.45;;;;;;;;;;1045187;28;20040;-79
2022/10/15 00:36:59;;;;;;;17.63;5.82;;;;;;;;;;1046447;28;20115;-79
2022/10/15 00:37:29;;;;;;;14.73;6.65;;;;;;;;;;1045290;28;20391;-79
2022/10/15 00:38:00;;;;;;;20.65;5.20;;;;;;;;;;1043685;28;20460;-79
2022/10/15 00:38:31;;;;;;;15.07;5.03;;;;;;;;;;1043591;28;20020;-79
2022/10/15 00:39:03;;;;;;;18.17;5.07;;;;;;;;;;1044026;28;20563;-79
2022/10/15 00:39:33;;;;;;;12.52;4.80;;;;;;;;;;1044824;28;20507;-79
2022/10/15 00:40:05;;;;;;;16.45;4.70;;;;;;;;;;1044936;28;20051;-79
2022/10/15 00:40:35;;;;;;;14.88;5.50;;;;;;;;;;1044947;28;20521;-79
2022/10/15 00:41:07;;;;;;;18.50;5.25;;;;;;;;;;1045100;28;20091;-79
2022/10/15 00:41:41;;;;;;;28.23;6.50;;;;;;;;;;1044093;28;20050;-79
2022/10/15 00:42:12;;;;;;;19.02;5.55;;;;;;;;;;1045976;28;20016;-79
2022/10/15 00:42:43;;;;;;;18.55;5.40;;;;;;;;;;1044460;28;20021;-79
2022/10/15 00:43:13;;;;;;;13.82;4.60;;;;;;;;;;1044728;28;20021;-79
2022/10/15 00:43:48;;;;;;;19.85;7.03;;;;;;;;;;1043283;28;20040;-79
2022/10/15 00:44:21;;;;;;;15.68;5.85;;;;;;;;;;1044248;28;20020;-79
2022/10/15 00:44:54;;;;;;;12.20;5.43;;;;;;;;;;1042858;28;20512;-79
2022/10/15 00:45:24;;;;;;;15.38;6.07;;;;;;;;;;1042208;28;20122;-79
2022/10/15 00:45:55;;;;;;;17.80;6.57;;;;;;;;;;1042854;28;20475;-79
2022/10/15 00:46:29;;;;;;;15.18;5.38;;;;;;;;;;1045276;28;20389;-79
2022/10/15 00:47:08;;;;;;;11.02;4.97;;;;;;;;;;1044916;28;20055;-79
2022/10/15 00:47:44;;;;;;;15.65;5.10;;;;;;;;;;1045626;28;20024;-79
2022/10/15 00:48:15;;;;;;;19.08;5.95;;;;;;;;;;1045095;28;20029;-79
2022/10/15 00:48:47;;;;;;;16.40;4.88;;;;;;;;;;1046300;28;20495;-79
2022/10/15 00:49:19;;;;;;;10.50;4.43;;;;;;;;;;1045728;28;20017;-79
2022/10/15 00:50:01;;;;;;;13.05;5.65;;;;;;;;;;1045522;28;20481;-79
2022/10/15 00:50:32;;;;;;;14.07;5.25;;;;;;;;;;1043347;28;20030;-79
2022/10/15 00:51:04;;;;;;;12.07;5.35;;;;;;;;;;1045569;28;20800;-79
2022/10/15 00:51:38;;;;;;;13.48;5.63;;;;;;;;;;1041081;28;20022;-79
2022/10/15 00:52:11;;;;;;;14.73;5.63;;;;;;;;;;1040058;28;20026;-79
2022/10/15 00:52:56;;;;;;;10.73;5.72;;;;;;;;;;1041100;28;20563;-79
2022/10/15 00:53:27;;;;;;;18.73;5.07;;;;;;;;;;1044085;28;20025;-78
2022/10/15 00:53:57;;;;;;;14.00;5.05;;;;;;;;;;1043698;28;20031;-79
2022/10/15 00:54:30;;;;;;;13.68;5.95;;;;;;;;;;1045048;28;20534;-79
2022/10/15 00:55:05;;;;;;;17.05;5.00;;;;;;;;;;1044699;28;20556;-79
2022/10/15 00:55:37;;;;;;;22.38;6.55;;;;;;;;;;1045233;28;20024;-79
2022/10/15 00:56:08;;;;;;;11.90;6.65;;;;;;;;;;1045036;28;20100;-79
2022/10/15 00:56:40;;;;;;;20.77;6.40;;;;;;;;;;1045943;28;20027;-79
2022/10/15 00:57:11;;;;;;;14.90;5.53;;;;;;;;;;1043895;28;20344;-79
2022/10/15 00:57:42;;;;;;;33.03;7.30;;;;;;;;;;1045167;28;20024;-79
2022/10/15 00:58:15;;;;;;;20.20;8.00;;;;;;;;;;1045303;28;20017;-79
2022/10/15 00:58:46;;;;;;;26.48;9.48;;;;;;;;;;1041071;28;20075;-79
2022/10/15 00:59:20;;;;;;;28.77;9.48;;;;;;;;;;1045530;28;20032;-79
2022/10/15 00:59:51;;;;;;;29.65;8.65;;;;;;;;;;1042134;28;20022;-78
2022/10/15 01:00:22;;;;;;;28.15;11.50;;;;;;;;;;1042090;28;20029;-79
2022/10/15 01:00:53;;;;;;;29.00;11.65;;;;;;;;;;1045027;28;20017;-79
2022/10/15 01:01:24;;;;;;;49.35;12.07;;;;;;;;;;1053191;22;20029;-77
2022/10/15 01:01:58;;;;;;;32.63;12.00;;;;;;;;;;1045004;28;20031;-77
2022/10/15 01:02:29;;;;;;;34.60;12.75;;;;;;;;;;1044082;28;20027;-76
2022/10/15 01:03:00;;;;;;;29.73;12.82;;;;;;;;;;1040693;28;20398;-77
2022/10/15 01:03:30;;;;;;;29.30;12.50;;;;;;;;;;1040909;28;20029;-76
2022/10/15 01:04:01;;;;;;;44.20;16.33;;;;;;;;;;1039679;28;20082;-77
2022/10/15 01:04:33;;;;;;;83.15;27.20;;;;;;;;;;1039670;28;20027;-77
2022/10/15 01:05:05;;;;;;;203.20;76.40;;;;;;;;;;1041500;28;20029;-77
2022/10/15 01:05:36;;;;;;;263.92;96.93;;;;;;;;;;1036813;28;20075;-76
2022/10/15 01:06:07;;;;;;;231.90;92.07;;;;;;;;;;1033616;28;20034;-77
2022/10/15 01:06:38;;;;;;;240.30;92.40;;;;;;;;;;1033624;28;20026;-76
2022/10/15 01:07:09;;;;;;;231.75;83.80;;;;;;;;;;1034254;28;20032;-76
2022/10/15 01:07:40;;;;;;;272.33;96.50;;;;;;;;;;1036524;28;20409;-77
2022/10/15 01:08:12;;;;;;;290.08;108.47;;;;;;;;;;1036811;28;20030;-77
2022/10/15 01:08:43;;;;;;;266.98;99.30;;;;;;;;;;1037572;28;20397;-77
2022/10/15 01:09:14;;;;;;;273.67;97.18;;;;;;;;;;1036206;28;20034;-76
2022/10/15 01:09:45;;;;;;;245.80;88.43;;;;;;;;;;1039512;28;20063;-76
2022/10/15 01:10:16;;;;;;;215.60;75.32;;;;;;;;;;1042009;28;20721;-77
2022/10/15 01:10:53;;;;;;;205.25;72.03;;;;;;;;;;1040702;28;20368;-77
2022/10/15 01:11:36;;;;;;;199.50;69.10;;;;;;;;;;1040705;28;20028;-76
2022/10/15 01:12:10;;;;;;;189.27;66.57;;;;;;;;;;1035235;28;20032;-77
2022/10/15 01:12:59;;;;;;;193.65;64.93;;;;;;;;;;1035792;28;20541;-77
2022/10/15 01:13:36;;;;;;;217.52;71.82;;;;;;;;;;1036168;28;20515;-76
2022/10/15 01:14:07;;;;;;;201.82;74.82;;;;;;;;;;1040672;28;20639;-76
2022/10/15 01:14:43;;;;;;;126.97;45.22;;;;;;;;;;1040534;28;20040;-77
2022/10/15 01:15:21;;;;;;;109.65;36.22;;;;;;;;;;1040263;28;20021;-76
2022/10/15 01:15:58;;;;;;;95.75;32.10;;;;;;;;;;1039924;28;20021;-76
2022/10/15 01:16:37;;;;;;;105.65;33.35;;;;;;;;;;1043018;28;20031;-77
2022/10/15 01:17:08;;;;;;;95.60;33.03;;;;;;;;;;1040446;28;20025;-77
2022/10/15 01:17:49;;;;;;;129.73;45.45;;;;;;;;;;1035608;28;20588;-77
2022/10/15 01:18:27;;;;;;;128.25;42.80;;;;;;;;;;1036137;28;20041;-76
2022/10/15 01:19:03;;;;;;;77.70;27.35;;;;;;;;;;1036569;28;20018;-76
2022/10/15 01:19:49;;;;;;;79.90;24.67;;;;;;;;;;1037769;28;20021;-77
2022/10/15 01:20:56;;;;;;;72.15;21.92;;;;;;;;;;1037359;28;20088;-77
2022/10/15 01:21:45;;;;;;;79.97;23.38;;;;;;;;;;1022449;29;20123;-76
2022/10/15 01:22:28;;;;;;;65.15;24.58;;;;;;;;;;1025798;28;20472;-77
2022/10/15 01:23:15;;;;;;;74.32;26.98;;;;;;;;;;1021828;28;20630;-77
2022/10/15 01:24:07;;;;;;;78.90;26.35;;;;;;;;;;1021866;29;20083;-76
2022/10/15 01:24:57;;;;;;;59.28;20.08;;;;;;;;;;1040191;28;20494;-77
2022/10/15 01:25:30;;;;;;;57.10;19.48;;;;;;;;;;1045068;28;20024;-77
2022/10/15 01:26:21;;;;;;;54.13;17.02;;;;;;;;;;1039626;28;20591;-77
2022/10/15 01:27:12;;;;;;;52.55;18.35;;;;;;;;;;1022251;28;20070;-76
2022/10/15 01:27:45;;;;;;;50.38;21.40;;;;;;;;;;1043873;28;20100;-76
2022/10/15 01:28:40;;;;;;;39.85;14.95;;;;;;;;;;1040733;28;20051;-77
2022/10/15 01:29:30;;;;;;;54.05;19.75;;;;;;;;;;1043014;28;20032;-77
2022/10/15 01:30:15;;;;;;;48.97;15.85;;;;;;;;;;1040805;28;20048;-77
2022/10/15 01:30:53;;;;;;;28.05;13.85;;;;;;;;;;1035468;28;20101;-76
2022/10/15 01:31:48;;;;;;;30.20;13.93;;;;;;;;;;1032930;28;20426;-76
2022/10/15 01:32:26;;;;;;;35.00;12.75;;;;;;;;;;1042994;23;20800;-77
2022/10/15 01:33:03;;;;;;;32.40;13.93;;;;;;;;;;1042323;28;20028;-77
2022/10/15 01:33:41;;;;;;;50.53;14.05;;;;;;;;;;1043546;28;20024;-76
2022/10/15 01:34:17;;;;;;;39.25;16.20;;;;;;;;;;1045163;28;20044;-76
2022/10/15 01:35:00;;;;;;;37.58;11.57;;;;;;;;;;1047400;28;20025;-76
2022/10/15 01:35:48;;;;;;;25.80;10.30;;;;;;;;;;1044317;28;20052;-76
2022/10/15 01:36:29;;;;;;;33.47;11.90;;;;;;;;;;1044290;28;20020;-76
2022/10/15 01:37:06;;;;;;;59.00;14.00;;;;;;;;;;1046010;28;20287;-76
2022/10/15 01:37:40;;;;;;;27.23;12.88;;;;;;;;;;1044227;28;20052;-76
2022/10/15 01:38:34;;;;;;;33.50;12.05;;;;;;;;;;1038691;28;20021;-77
2022/10/15 01:39:10;;;;;;;20.58;11.45;;;;;;;;;;1027623;28;20478;-76
2022/10/15 01:39:45;;;;;;;20.98;11.15;;;;;;;;;;1037088;28;20075;-77
2022/10/15 01:40:22;;;;;;;15.02;9.15;;;;;;;;;;1044209;28;20124;-77
2022/10/15 01:40:58;;;;;;;24.20;11.32;;;;;;;;;;1040455;28;20143;-77
2022/10/15 01:41:59;;;;;;;28.90;10.30;;;;;;;;;;1039442;28;20029;-76
2022/10/15 01:42:47;;;;;;;27.58;11.30;;;;;;;;;;1025345;28;20282;-76
2022/10/15 01:43:32;;;;;;;30.35;9.80;;;;;;;;;;1043475;28;20587;-76
2022/10/15 01:44:08;;;;;;;28.75;10.52;;;;;;;;;;1041810;28;20021;-77
2022/10/15 01:44:42;;;;;;;31.10;9.85;;;;;;;;;;1040487;28;20036;-76
2022/10/15 01:45:36;;;;;;;30.98;12.13;;;;;;;;;;1038356;28;20122;-76
2022/10/15 01:46:10;;;;;;;37.03;13.70;;;;;;;;;;1039294;28;20100;-77
2022/10/15 01:46:41;;;;;;;19.75;10.18;;;;;;;;;;1041851;28;20060;-77
2022/10/15 01:47:18;;;;;;;36.53;12.32;;;;;;;;;;1040159;28;20338;-77
2022/10/15 01:47:52;;;;;;;29.25;9.85;;;;;;;;;;1038436;28;20025;-76
2022/10/15 01:48:26;;;;;;;35.15;11.20;;;;;;;;;;1035380;28;20037;-76
2022/10/15 01:49:04;;;;;;;34.55;9.93;;;;;;;;;;1039329;28;20053;-76
2022/10/15 01:49:41;;;;;;;23.63;10.20;;;;;;;;;;1040469;28;20048;-76
2022/10/15 01:50:14;;;;;;;13.30;7.97;;;;;;;;;;1041019;28;20025;-75
2022/10/15 01:50:50;;;;;;;14.82;9.13;;;;;;;;;;1039545;28;20087;-75
2022/10/15 01:51:23;;;;;;;34.97;9.85;;;;;;;;;;1040580;28;20029;-76
2022/10/15 01:51:57;;;;;;;37.88;10.00;;;;;;;;;;1039500;28;20041;-76
2022/10/15 01:52:31;;;;;;;17.55;9.20;;;;;;;;;;1037549;28;20048;-77
2022/10/15 01:53:09;;;;;;;27.05;12.23;;;;;;;;;;1039427;28;20425;-76
2022/10/15 01:53:45;;;;;;;44.00;12.88;;;;;;;;;;1038558;28;20389;-76
2022/10/15 01:54:19;;;;;;;25.67;10.70;;;;;;;;;;1042541;28;20491;-77
2022/10/15 01:54:52;;;;;;;42.00;11.75;;;;;;;;;;1044976;28;20380;-76
2022/10/15 01:55:25;;;;;;;32.75;10.57;;;;;;;;;;1041261;28;20052;-75
2022/10/15 01:55:59;;;;;;;43.50;12.65;;;;;;;;;;1041791;28;20051;-76
2022/10/15 01:56:35;;;;;;;44.42;10.23;;;;;;;;;;1036640;28;20026;-76
2022/10/15 01:57:09;;;;;;;35.47;11.27;;;;;;;;;;1034677;28;20026;-76
2022/10/15 01:57:45;;;;;;;36.53;13.73;;;;;;;;;;1038818;28;20096;-76
2022/10/15 01:58:18;;;;;;;45.78;12.73;;;;;;;;;;1036585;28;20176;-75
2022/10/15 01:58:51;;;;;;;33.72;11.32;;;;;;;;;;1033738;28;20022;-76
2022/10/15 01:59:28;;;;;;;21.48;10.13;;;;;;;;;;1034613;28;20018;-76
2022/10/15 02:00:04;;;;;;;39.75;10.35;;;;;;;;;;1035748;28;20475;-75
2022/10/15 02:00:39;;;;;;;29.35;9.77;;;;;;;;;;1037131;28;20052;-76
2022/10/15 02:01:11;;;;;;;15.05;7.00;;;;;;;;;;1036951;28;20029;-75
2022/10/15 02:01:43;;;;;;;34.50;9.40;;;;;;;;;;1037027;28;20528;-76
2022/10/15 02:02:16;;;;;;;25.88;8.75;;;;;;;;;;1034978;28;20076;-75
2022/10/15 02:02:51;;;;;;;24.83;10.52;;;;;;;;;;1037871;28;20029;-75
2022/10/15 02:03:26;;;;;;;34.90;10.45;;;;;;;;;;1040306;28;20531;-75
2022/10/15 02:03:58;;;;;;;15.65;8.85;;;;;;;;;;1039040;28;20123;-75
2022/10/15 02:04:30;;;;;;;23.85;8.75;;;;;;;;;;1038597;28;20128;-75
2022/10/15 02:05:06;;;;;;;32.60;12.55;;;;;;;;;;1040916;28;20048;-76
2022/10/15 02:05:46;;;;;;;27.42;11.30;;;;;;;;;;1041575;28;20032;-75
2022/10/15 02:06:39;;;;;;;31.63;9.70;;;;;;;;;;1044548;28;20547;-76
2022/10/15 02:07:33;;;;;;;22.25;9.77;;;;;;;;;;1042703;28;20064;-76
2022/10/15 02:08:24;;;;;;;28.92;13.10;;;;;;;;;;1034505;28;20061;-77
2022/10/15 02:08:54;;;;;;;22.40;10.57;;;;;;;;;;1041445;28;20036;-76
2022/10/15 02:09:34;;;;;;;59.42;12.20;;;;;;;;;;1040549;28;20115;-76
2022/10/15 02:10:06;;;;;;;47.13;9.10;;;;;;;;;;1044870;28;20056;-76
2022/10/15 02:10:43;;;;;;;38.50;10.43;;;;;;;;;;1041151;28;20404;-76
2022/10/15 02:11:17;;;;;;;33.40;9.57;;;;;;;;;;1018276;28;20034;-76
2022/10/15 02:12:04;;;;;;;43.55;10.05;;;;;;;;;;1040872;28;20495;-76
2022/10/15 02:12:48;;;;;;;23.40;7.63;;;;;;;;;;1040623;28;20063;-77
2022/10/15 02:13:24;;;;;;;57.78;9.23;;;;;;;;;;1042626;28;20475;-76
2022/10/15 02:14:08;;;;;;;18.20;7.53;;;;;;;;;;1040839;28;20454;-76
2022/10/15 02:14:42;;;;;;;29.58;7.22;;;;;;;;;;1041857;28;20115;-75
2022/10/15 02:15:22;;;;;;;20.80;7.38;;;;;;;;;;1040166;28;20031;-77
2022/10/15 02:16:01;;;;;;;15.18;7.57;;;;;;;;;;1037341;28;20017;-77
2022/10/15 02:16:39;;;;;;;30.13;7.38;;;;;;;;;;1041357;28;20087;-77
2022/10/15 02:17:10;;;;;;;36.50;8.68;;;;;;;;;;1040521;28;20124;-77
2022/10/15 02:17:42;;;;;;;32.72;10.10;;;;;;;;;;1040495;28;20059;-77
2022/10/15 02:18:26;;;;;;;48.45;9.80;;;;;;;;;;1038595;28;20128;-75
2022/10/15 02:19:06;;;;;;;36.90;8.55;;;;;;;;;;1040823;28;20021;-77
2022/10/15 02:19:43;;;;;;;38.13;11.60;;;;;;;;;;1040489;28;20079;-78
2022/10/15 02:20:19;;;;;;;40.22;9.30;;;;;;;;;;1042171;28;20563;-77
2022/10/15 02:20:55;;;;;;;34.17;11.20;;;;;;;;;;1037797;28;20029;-76
2022/10/15 02:21:32;;;;;;;54.92;11.43;;;;;;;;;;1035855;28;20561;-76
2022/10/15 02:23:03;;;;;;;57.80;11.55;;;;;;;;;;1063623;23;20044;-76
2022/10/15 02:23:44;;;;;;;49.03;12.68;;;;;;;;;;1043388;28;20037;-76
2022/10/15 02:25:26;;;;;;;66.78;15.40;;;;;;;;;;1043516;28;20044;-76
2022/10/15 02:25:59;;;;;;;32.25;11.80;;;;;;;;;;1031656;28;20560;-76
2022/10/15 02:26:36;;;;;;;72.55;15.60;;;;;;;;;;1028348;28;20030;-76
2022/10/15 02:27:12;;;;;;;58.30;14.82;;;;;;;;;;1032394;28;20698;-77
2022/10/15 02:27:49;;;;;;;52.92;14.98;;;;;;;;;;1029898;28;20065;-76
2022/10/15 02:28:24;;;;;;;94.80;16.27;;;;;;;;;;1037345;28;20498;-76
2022/10/15 02:29:35;;;;;;;58.72;11.40;;;;;;;;;;1042036;28;20403;-77
2022/10/15 02:30:10;;;;;;;60.17;12.82;;;;;;;;;;1044016;28;20029;-76
2022/10/15 02:30:59;;;;;;;59.90;10.30;;;;;;;;;;1042290;28;20052;-77
2022/10/15 02:31:36;;;;;;;41.53;11.25;;;;;;;;;;1039618;28;20121;-77
2022/10/15 02:32:09;;;;;;;47.72;10.30;;;;;;;;;;1042647;28;20024;-77
2022/10/15 02:32:45;;;;;;;48.55;12.05;;;;;;;;;;1037667;28;20029;-76
2022/10/15 02:33:19;;;;;;;37.80;10.13;;;;;;;;;;1037133;28;20029;-76
2022/10/15 02:34:35;;;;;;;32.83;8.30;;;;;;;;;;1028167;28;20439;-76
2022/10/15 02:35:42;;;;;;;53.50;10.20;;;;;;;;;;1065081;23;20066;-76
2022/10/15 02:36:41;;;;;;;29.77;8.93;;;;;;;;;;1044979;23;20063;-76
2022/10/15 02:37:18;;;;;;;28.17;8.05;;;;;;;;;;1036415;28;20034;-76
2022/10/15 02:38:43;;;;;;;49.30;8.55;;;;;;;;;;1037605;28;20426;-76
2022/10/15 02:39:33;;;;;;;39.75;7.72;;;;;;;;;;1019384;28;20207;-76
2022/10/15 02:40:10;;;;;;;46.10;9.60;;;;;;;;;;1035483;28;20471;-77
2022/10/15 02:40:45;;;;;;;37.42;8.80;;;;;;;;;;1038002;28;20479;-77
2022/10/15 02:41:17;;;;;;;37.47;6.22;;;;;;;;;;1032907;28;20060;-77
2022/10/15 02:41:48;;;;;;;14.02;7.68;;;;;;;;;;1032064;28;20022;-77
2022/10/15 02:42:20;;;;;;;30.20;8.35;;;;;;;;;;1033651;28;20026;-77
2022/10/15 02:42:51;;;;;;;14.63;5.57;;;;;;;;;;1031846;28;20029;-77
2022/10/15 02:43:22;;;;;;;28.92;6.10;;;;;;;;;;1032151;28;20317;-77
2022/10/15 02:43:54;;;;;;;26.63;8.02;;;;;;;;;;1032477;28;20030;-77
2022/10/15 02:44:26;;;;;;;31.90;6.22;;;;;;;;;;1027946;28;20453;-77
2022/10/15 02:45:03;;;;;;;23.20;8.45;;;;;;;;;;1031869;28;20136;-76
2022/10/15 02:45:37;;;;;;;30.55;7.05;;;;;;;;;;1031526;28;20479;-76
2022/10/15 02:46:11;;;;;;;24.85;9.75;;;;;;;;;;1031685;28;20108;-76
2022/10/15 02:46:45;;;;;;;24.90;4.97;;;;;;;;;;1034096;28;20018;-75
2022/10/15 02:47:19;;;;;;;17.23;4.97;;;;;;;;;;1033264;28;20053;-76
2022/10/15 02:47:52;;;;;;;25.10;5.57;;;;;;;;;;1032390;28;20041;-76
2022/10/15 02:48:24;;;;;;;14.90;6.50;;;;;;;;;;1034294;28;20033;-76
2022/10/15 02:48:59;;;;;;;25.35;5.40;;;;;;;;;;1034528;28;20022;-76
2022/10/15 02:49:35;;;;;;;;;;;;;;;;;;1037841;28;20037;-76
2022/10/15 02:50:10;;;;;;;23.65;6.68;;;;;;;;;;1037230;28;19913;-76
2022/10/15 02:50:42;;;;;;;27.52;7.28;;;;;;;;;;1035018;28;20024;-75
2022/10/15 02:51:13;;;;;;;19.58;6.45;;;;;;;;;;1033394;28;20475;-76
2022/10/15 02:51:48;;;;;;;21.35;5.18;;;;;;;;;;1032480;28;20026;-77
2022/10/15 02:52:29;;;;;;;16.48;6.25;;;;;;;;;;1030760;28;20045;-77
2022/10/15 02:53:07;;;;;;;29.63;5.70;;;;;;;;;;1033521;28;20030;-77
2022/10/15 02:53:42;;;;;;;14.88;6.50;;;;;;;;;;1029440;28;20030;-77
2022/10/15 02:54:16;;;;;;;13.98;6.15;;;;;;;;;;1027763;28;20118;-77
2022/10/15 02:54:54;;;;;;;21.65;7.43;;;;;;;;;;1028795;28;20360;-76
2022/10/15 02:55:34;;;;;;;32.72;7.57;;;;;;;;;;1023801;28;20073;-76
2022/10/15 02:56:08;;;;;;;21.13;6.43;;;;;;;;;;1031370;28;20041;-77
2022/10/15 02:56:40;;;;;;;23.33;6.15;;;;;;;;;;1029487;28;20027;-76
2022/10/15 02:57:20;;;;;;;35.42;7.97;;;;;;;;;;1029771;23;20759;-76
2022/10/15 02:58:02;;;;;;;32.63;5.60;;;;;;;;;;1027260;28;20046;-77
2022/10/15 02:58:41;;;;;;;15.15;4.22;;;;;;;;;;1037177;28;20040;-78
2022/10/15 02:59:28;;;;;;;19.58;7.68;;;;;;;;;;1031701;28;20042;-76
2022/10/15 03:00:06;;;;;;;36.17;6.97;;;;;;;;;;1029927;28;20116;-77
2022/10/15 03:00:41;;;;;;;18.30;5.07;;;;;;;;;;1036751;28;20048;-76
2022/10/15 03:01:15;;;;;;;32.80;6.65;;;;;;;;;;1033958;28;20036;-77
2022/10/15 03:02:55;;;;;;;31.20;9.60;;;;;;;;;;1041227;28;20896;-77
2022/10/15 03:03:29;;;;;;;27.55;7.13;;;;;;;;;;1042879;28;20024;-77
2022/10/15 03:07:57;;;;;;;;;;;;;;;;;;897143;26;20208;-77
2022/10/15 03:08:35;;;;;;;19.63;9.48;;;;;;;;;;1029873;28;20573;-77
2022/10/15 03:09:17;;;;;;;18.77;5.68;;;;;;;;;;1021526;28;20030;-77
2022/10/15 03:10:04;;;;;;;29.75;7.95;;;;;;;;;;1005930;22;20132;-79
2022/10/15 03:10:35;;;;;;;30.58;8.32;;;;;;;;;;1047811;28;20071;-79
2022/10/15 03:11:06;;;;;;;23.08;7.43;;;;;;;;;;1042091;28;20474;-79
2022/10/15 03:11:37;;;;;;;27.00;7.50;;;;;;;;;;1040489;28;20022;-79
2022/10/15 03:12:08;;;;;;;21.15;8.13;;;;;;;;;;1037635;28;20024;-79
2022/10/15 03:12:39;;;;;;;13.77;4.70;;;;;;;;;;1038550;28;20037;-79
2022/10/15 03:13:09;;;;;;;43.97;7.40;;;;;;;;;;1038318;28;20096;-79
2022/10/15 03:13:43;;;;;;;21.05;6.03;;;;;;;;;;1043342;28;20021;-79
2022/10/15 03:14:14;;;;;;;14.25;6.10;;;;;;;;;;1044319;28;20028;-79
2022/10/15 03:14:44;;;;;;;35.67;7.75;;;;;;;;;;1038533;28;20029;-79
2022/10/15 03:15:15;;;;;;;7.68;4.43;;;;;;;;;;1037569;28;20022;-78
2022/10/15 03:15:46;;;;;;;19.27;4.65;;;;;;;;;;1040214;28;20120;-79
2022/10/15 03:16:16;;;;;;;15.18;5.85;;;;;;;;;;1039240;28;20123;-79
2022/10/15 03:16:47;;;;;;;19.38;5.30;;;;;;;;;;1039528;28;20151;-79
2022/10/15 03:17:18;;;;;;;22.30;4.78;;;;;;;;;;1038091;28;20120;-78
2022/10/15 03:17:49;;;;;;;20.70;6.68;;;;;;;;;;1036439;28;20595;-78
2022/10/15 03:18:20;;;;;;;21.50;6.63;;;;;;;;;;1041393;28;20235;-79
2022/10/15 03:18:51;;;;;;;15.75;5.53;;;;;;;;;;1040072;28;20029;-79
2022/10/15 03:19:22;;;;;;;28.00;5.30;;;;;;;;;;1043398;28;20033;-78
2022/10/15 03:19:52;;;;;;;18.02;6.32;;;;;;;;;;1042215;28;20060;-79
2022/10/15 03:20:23;;;;;;;20.40;5.05;;;;;;;;;;1042854;28;20025;-78
2022/10/15 03:20:55;;;;;;;14.10;5.30;;;;;;;;;;1042377;28;20107;-78
2022/10/15 03:21:27;;;;;;;27.42;6.70;;;;;;;;;;1041435;28;20017;-78
2022/10/15 03:21:58;;;;;;;18.10;5.97;;;;;;;;;;1041754;28;20017;-78
2022/10/15 03:22:28;;;;;;;9.52;4.07;;;;;;;;;;1041342;28;20005;-80
2022/10/15 03:22:59;;;;;;;27.23;4.95;;;;;;;;;;1042264;28;20101;-79
2022/10/15 03:23:29;;;;;;;23.65;7.68;;;;;;;;;;1041921;28;20051;-78
2022/10/15 03:24:00;;;;;;;17.77;6.63;;;;;;;;;;1040648;28;20056;-79
2022/10/15 03:24:31;;;;;;;32.47;7.50;;;;;;;;;;1037844;28;20018;-80
2022/10/15 03:25:04;;;;;;;31.92;7.55;;;;;;;;;;1036685;28;20017;-80
2022/10/15 03:25:35;;;;;;;38.15;7.47;;;;;;;;;;1037139;28;20029;-79
2022/10/15 03:26:05;;;;;;;18.13;6.80;;;;;;;;;;1040710;28;20453;-79
2022/10/15 03:26:36;;;;;;;31.77;8.48;;;;;;;;;;1040130;28;20957;-80
2022/10/15 03:27:07;;;;;;;15.20;7.25;;;;;;;;;;1042553;28;20166;-79
2022/10/15 03:27:37;;;;;;;21.13;6.97;;;;;;;;;;1040801;28;20033;-79
2022/10/15 03:29:24;;;;;;;;;;;;;;;;;;867386;22;20277;-79
2022/10/15 03:29:55;;;;;;;16.02;5.30;;;;;;;;;;1040994;28;19913;-79
2022/10/15 03:30:25;;;;;;;12.23;6.22;;;;;;;;;;1040942;28;20017;-79
2022/10/15 03:30:56;;;;;;;16.77;5.13;;;;;;;;;;1041747;28;20033;-79
2022/10/15 03:31:27;;;;;;;11.52;4.95;;;;;;;;;;1044379;28;20024;-79
2022/10/15 03:31:57;;;;;;;16.10;6.25;;;;;;;;;;1043962;28;20092;-79
2022/10/15 03:32:28;;;;;;;18.13;5.38;;;;;;;;;;1044036;28;20021;-79
2022/10/15 03:32:59;;;;;;;8.55;4.68;;;;;;;;;;1043051;28;20132;-79
2022/10/15 03:33:30;;;;;;;18.13;4.55;;;;;;;;;;1043557;28;20033;-79
2022/10/15 03:34:00;;;;;;;10.68;6.13;;;;;;;;;;1043604;28;20159;-80
2022/10/15 03:34:31;;;;;;;19.85;5.35;;;;;;;;;;1043448;28;20542;-79
2022/10/15 03:35:02;;;;;;;20.70;5.32;;;;;;;;;;1043082;28;20063;-79